TAF KTEB
KTEB 090533Z 0906/1012 31008KT P6SM SCT040 FM092100 28005KT P6SM BKN250 FM100300 VRB03KT P6SM BKN100=
METAR KTEB
WC KTEB
WS KTEB
WV KTEB